createdAt,value
2019-03-06T00:00:23.354Z,97686.48
2019-03-06T00:01:27.222Z,97691.09
2019-03-06T00:02:29.491Z,97692.83
2019-03-06T00:03:31.518Z,97701.61
2019-03-06T00:04:33.900Z,97695.30
2019-03-06T00:05:36.511Z,97697.29
2019-03-06T00:06:38.816Z,97695.97
2019-03-06T00:07:40.562Z,97694.52
2019-03-06T00:08:42.898Z,97699.91
2019-03-06T00:09:44.826Z,97702.48
2019-03-06T00:10:47.633Z,97699.18
2019-03-06T00:11:50.034Z,97704.99
2019-03-06T00:12:52.045Z,97705.17
2019-03-06T00:13:54.008Z,97708.06
2019-03-06T00:14:56.011Z,97705.07
2019-03-06T00:15:58.061Z,97700.23
2019-03-06T00:17:00.149Z,97703.95
2019-03-06T00:18:02.964Z,97711.05
2019-03-06T00:19:06.182Z,97714.39
2019-03-06T00:20:08.622Z,97705.66
2019-03-06T00:21:10.871Z,97707.78
2019-03-06T00:22:13.087Z,97703.84
2019-03-06T00:23:15.497Z,97703.25
2019-03-06T00:24:17.567Z,97704.16
2019-03-06T00:25:20.634Z,97712.06
2019-03-06T00:26:23.610Z,97706.31
2019-03-06T00:27:25.426Z,97714.19
2019-03-06T00:28:27.963Z,97704.86
2019-03-06T00:29:29.945Z,97705.63
2019-03-06T00:30:32.994Z,97709.55
2019-03-06T00:31:34.847Z,97707.19
2019-03-06T00:32:36.951Z,97703.12
2019-03-06T00:33:39.400Z,97709.45
2019-03-06T00:34:42.735Z,97710.19
2019-03-06T00:35:46.856Z,97707.92
2019-03-06T00:36:48.861Z,97715.63
2019-03-06T00:37:52.942Z,97713.98
2019-03-06T00:38:56.264Z,97712.52
2019-03-06T00:40:00.356Z,97720.95
2019-03-06T00:41:24.577Z,97724.98
2019-03-06T00:42:26.560Z,97720.14
2019-03-06T00:43:28.510Z,97716.66
2019-03-06T00:44:30.752Z,97715.41
2019-03-06T00:45:32.756Z,97707.40
2019-03-06T00:46:34.814Z,97708.09
2019-03-06T00:47:36.915Z,97716.20
2019-03-06T00:48:38.640Z,97716.38
2019-03-06T00:49:40.456Z,97717.22
2019-03-06T00:50:42.568Z,97721.78
2019-03-06T00:51:44.861Z,97718.65
2019-03-06T00:52:47.139Z,97721.68
2019-03-06T00:53:49.613Z,97722.06
2019-03-06T00:54:51.552Z,97726.06
2019-03-06T00:55:53.670Z,97731.61
2019-03-06T00:56:56.050Z,97731.88
2019-03-06T00:57:57.775Z,97729.90
2019-03-06T00:58:59.799Z,97733.38
2019-03-06T01:00:04.911Z,97736.52
2019-03-06T01:01:08.650Z,97729.90
2019-03-06T01:02:13.027Z,97733.97
2019-03-06T01:03:15.453Z,97737.80
2019-03-06T01:04:17.339Z,97737.98
2019-03-06T01:05:19.985Z,97734.70
2019-03-06T01:06:22.144Z,97739.58
2019-03-06T01:07:24.468Z,97739.13
2019-03-06T01:08:28.684Z,97740.62
2019-03-06T01:09:30.555Z,97738.36
2019-03-06T01:10:32.778Z,97736.66
2019-03-06T01:11:34.679Z,97741.80
2019-03-06T01:12:36.692Z,97736.09
2019-03-06T01:13:38.962Z,97732.25
2019-03-06T01:14:42.040Z,97733.69
2019-03-06T01:15:44.240Z,97749.56
2019-03-06T01:16:46.452Z,97745.45
2019-03-06T01:17:48.563Z,97747.33
2019-03-06T01:18:50.932Z,97746.67
2019-03-06T01:19:52.994Z,97738.80
2019-03-06T01:20:57.437Z,97742.76
2019-03-06T01:22:00.176Z,97744.77
2019-03-06T01:23:03.192Z,97744.25
2019-03-06T01:24:05.681Z,97743.66
2019-03-06T01:25:14.438Z,97745.70
2019-03-06T01:26:16.832Z,97743.11
2019-03-06T01:27:18.655Z,97748.39
2019-03-06T01:28:20.773Z,97747.67
2019-03-06T01:29:22.994Z,97750.75
2019-03-06T01:30:26.955Z,97750.47
2019-03-06T01:31:28.796Z,97749.46
2019-03-06T01:32:30.791Z,97755.98
2019-03-06T01:33:37.442Z,97755.78
2019-03-06T01:34:44.330Z,97761.45
2019-03-06T01:35:51.248Z,97757.97
2019-03-06T01:37:11.912Z,97759.64
2019-03-06T01:38:17.132Z,97761.45
2019-03-06T01:39:22.365Z,97764.81
2019-03-06T01:40:42.904Z,97760.32
2019-03-06T01:41:49.865Z,97761.95
2019-03-06T01:42:53.771Z,97759.95
2019-03-06T01:43:55.859Z,97768.95
2019-03-06T01:44:57.939Z,97759.77
2019-03-06T01:46:00.547Z,97765.94
2019-03-06T01:47:03.159Z,97760.41
2019-03-06T01:48:05.426Z,97769.44
2019-03-06T01:49:07.315Z,97774.67
2019-03-06T01:50:10.613Z,97774.52
2019-03-06T01:51:12.661Z,97783.16
2019-03-06T01:52:14.883Z,97786.30
2019-03-06T01:53:18.431Z,97778.53
2019-03-06T01:54:22.545Z,97772.92
2019-03-06T01:55:24.575Z,97782.66
2019-03-06T01:56:26.452Z,97780.18
2019-03-06T01:57:28.290Z,97779.21
2019-03-06T01:58:30.160Z,97781.51
2019-03-06T01:59:32.313Z,97775.59
2019-03-06T02:00:35.275Z,97783.66
2019-03-06T02:01:37.516Z,97784.14
2019-03-06T02:02:40.238Z,97784.44
2019-03-06T02:03:44.092Z,97783.44
2019-03-06T02:04:46.412Z,97780.81
2019-03-06T02:05:49.374Z,97787.74
2019-03-06T02:06:51.745Z,97789.02
2019-03-06T02:07:54.394Z,97787.12
2019-03-06T02:08:58.322Z,97792.77
2019-03-06T02:10:00.846Z,97794.33
2019-03-06T02:11:04.116Z,97798.00
2019-03-06T02:12:07.129Z,97791.67
2019-03-06T02:13:10.134Z,97796.41
2019-03-06T02:14:12.930Z,97789.80
2019-03-06T02:15:16.987Z,97797.72
2019-03-06T02:16:19.410Z,97793.75
2019-03-06T02:17:21.549Z,97795.22
2019-03-06T02:18:24.037Z,97794.91
2019-03-06T02:19:26.233Z,97799.28
2019-03-06T02:20:28.391Z,97800.85
2019-03-06T02:21:30.528Z,97809.62
2019-03-06T02:22:32.517Z,97802.47
2019-03-06T02:23:34.605Z,97806.19
2019-03-06T02:24:36.802Z,97802.88
2019-03-06T02:25:38.736Z,97807.30
2019-03-06T02:26:40.837Z,97808.86
2019-03-06T02:27:43.036Z,97811.48
2019-03-06T02:28:45.001Z,97812.13
2019-03-06T02:29:47.227Z,97820.73
2019-03-06T02:30:49.539Z,97821.07
2019-03-06T02:31:51.749Z,97812.95
2019-03-06T02:32:54.099Z,97824.11
2019-03-06T02:33:55.840Z,97825.30
2019-03-06T02:34:58.252Z,97824.48
2019-03-06T02:36:00.292Z,97826.13
2019-03-06T02:37:02.583Z,97833.73
2019-03-06T02:38:04.598Z,97834.05
2019-03-06T02:39:06.715Z,97842.64
2019-03-06T02:40:10.334Z,97837.38
2019-03-06T02:41:12.333Z,97841.45
2019-03-06T02:42:14.457Z,97847.58
2019-03-06T02:43:16.726Z,97839.65
2019-03-06T02:44:18.858Z,97844.09
2019-03-06T02:45:21.455Z,97841.30
2019-03-06T02:46:23.407Z,97849.42
2019-03-06T02:47:25.435Z,97851.71
2019-03-06T02:48:27.679Z,97851.08
2019-03-06T02:49:29.897Z,97856.69
2019-03-06T02:50:31.822Z,97856.52
2019-03-06T02:51:33.741Z,97865.83
2019-03-06T02:52:35.777Z,97859.17
2019-03-06T02:53:37.988Z,97864.50
2019-03-06T02:54:40.390Z,97867.42
2019-03-06T02:55:42.495Z,97866.09
2019-03-06T02:56:44.552Z,97871.73
2019-03-06T02:57:52.079Z,97864.95
2019-03-06T02:58:58.323Z,97865.99
2019-03-06T03:00:02.416Z,97863.27
2019-03-06T03:01:20.319Z,97869.18
2019-03-06T03:02:39.298Z,97869.33
2019-03-06T03:03:59.757Z,97881.53
2019-03-06T03:05:06.711Z,97878.84
2019-03-06T03:06:13.738Z,97884.28
2019-03-06T03:07:15.879Z,97882.16
2019-03-06T03:08:17.934Z,97889.22
2019-03-06T03:09:20.308Z,97888.15
2019-03-06T03:10:22.645Z,97884.20
2019-03-06T03:11:24.843Z,97896.22
2019-03-06T03:12:28.073Z,97896.70
2019-03-06T03:13:30.337Z,97893.22
2019-03-06T03:14:32.613Z,97901.53
2019-03-06T03:15:34.986Z,97901.47
2019-03-06T03:16:37.301Z,97899.81
2019-03-06T03:17:39.369Z,97905.91
2019-03-06T03:18:41.409Z,97901.80
2019-03-06T03:19:43.684Z,97896.51
2019-03-06T03:20:45.915Z,97900.78
2019-03-06T03:21:47.978Z,97896.67
2019-03-06T03:22:50.166Z,97901.62
2019-03-06T03:23:52.117Z,97906.45
2019-03-06T03:24:54.167Z,97899.97
2019-03-06T03:25:56.061Z,97901.47
2019-03-06T03:26:58.058Z,97896.19
2019-03-06T03:28:00.085Z,97902.80
2019-03-06T03:29:02.195Z,97902.09
2019-03-06T03:30:09.974Z,97903.74
2019-03-06T03:31:11.851Z,97902.89
2019-03-06T03:32:14.105Z,97908.55
2019-03-06T03:33:16.263Z,97906.91
2019-03-06T03:34:18.320Z,97909.09
2019-03-06T03:35:21.262Z,97909.70
2019-03-06T03:36:23.177Z,97913.20
2019-03-06T03:37:25.450Z,97914.66
2019-03-06T03:38:27.598Z,97917.81
2019-03-06T03:39:29.909Z,97919.66
2019-03-06T03:40:31.734Z,97913.16
2019-03-06T03:41:33.785Z,97920.72
2019-03-06T03:42:35.528Z,97922.55
2019-03-06T03:43:37.664Z,97921.30
2019-03-06T03:44:39.967Z,97928.81
2019-03-06T03:45:41.853Z,97924.73
2019-03-06T03:46:44.405Z,97926.41
2019-03-06T03:47:46.396Z,97926.23
2019-03-06T03:48:48.220Z,97930.23
2019-03-06T03:49:50.334Z,97932.03
2019-03-06T03:50:52.609Z,97933.03
2019-03-06T03:51:54.550Z,97926.90
2019-03-06T03:52:56.885Z,97929.56
2019-03-06T03:54:00.115Z,97931.21
2019-03-06T03:55:08.840Z,97935.53
2019-03-06T03:56:11.039Z,97938.15
2019-03-06T03:57:14.432Z,97940.48
2019-03-06T03:58:16.395Z,97937.67
2019-03-06T03:59:20.130Z,97937.14
2019-03-06T04:00:22.410Z,97943.11
2019-03-06T04:01:25.036Z,97946.39
2019-03-06T04:02:27.389Z,97946.59
2019-03-06T04:03:29.185Z,97948.75
2019-03-06T04:04:31.298Z,97954.83
2019-03-06T04:05:34.225Z,97943.09
2019-03-06T04:06:36.118Z,97944.59
2019-03-06T04:07:38.255Z,97951.88
2019-03-06T04:08:40.733Z,97958.16
2019-03-06T04:09:42.435Z,97952.71
2019-03-06T04:10:44.807Z,97954.19
2019-03-06T04:11:46.889Z,97963.77
2019-03-06T04:12:49.346Z,97960.60
2019-03-06T04:13:51.043Z,97966.57
2019-03-06T04:14:53.088Z,97962.92
2019-03-06T04:15:55.111Z,97969.84
2019-03-06T04:16:57.026Z,97968.84
2019-03-06T04:17:59.189Z,97974.14
2019-03-06T04:19:00.977Z,97972.17
2019-03-06T04:20:09.396Z,97968.52
2019-03-06T04:21:11.458Z,97972.02
2019-03-06T04:22:13.192Z,97975.66
2019-03-06T04:23:17.070Z,97976.13
2019-03-06T04:24:19.170Z,97974.81
2019-03-06T04:25:21.010Z,97975.80
2019-03-06T04:26:23.369Z,97974.19
2019-03-06T04:27:25.235Z,97973.97
2019-03-06T04:28:28.111Z,97972.17
2019-03-06T04:29:30.335Z,97983.27
2019-03-06T04:30:32.468Z,97981.80
2019-03-06T04:31:34.587Z,97981.11
2019-03-06T04:32:37.565Z,97982.92
2019-03-06T04:33:40.165Z,97990.68
2019-03-06T04:34:42.094Z,97987.03
2019-03-06T04:35:44.461Z,97988.68
2019-03-06T04:36:46.339Z,97994.33
2019-03-06T04:37:48.613Z,97998.30
2019-03-06T04:38:50.815Z,97993.48
2019-03-06T04:39:52.689Z,97994.17
2019-03-06T04:40:54.857Z,97996.95
2019-03-06T04:41:57.133Z,97996.49
2019-03-06T04:42:58.851Z,98002.06
2019-03-06T04:44:00.751Z,97997.94
2019-03-06T04:45:07.101Z,97998.98
2019-03-06T04:46:09.140Z,98002.27
2019-03-06T04:47:11.226Z,98003.08
2019-03-06T04:48:13.320Z,98008.05
2019-03-06T04:49:15.119Z,98003.23
2019-03-06T04:50:17.314Z,98010.17
2019-03-06T04:51:19.262Z,98010.69
2019-03-06T04:52:21.576Z,98012.81
2019-03-06T04:53:23.857Z,98013.49
2019-03-06T04:54:25.570Z,98019.42
2019-03-06T04:55:27.586Z,98019.13
2019-03-06T04:56:29.566Z,98017.48
2019-03-06T04:57:31.713Z,98027.06
2019-03-06T04:58:33.398Z,98018.11
2019-03-06T04:59:35.528Z,98021.75
2019-03-06T05:00:37.692Z,98026.90
2019-03-06T05:01:40.110Z,98022.09
2019-03-06T05:02:42.140Z,98034.31
2019-03-06T05:03:44.034Z,98033.64
2019-03-06T05:04:46.246Z,98028.67
2019-03-06T05:05:48.352Z,98029.84
2019-03-06T05:06:50.456Z,98042.73
2019-03-06T05:07:52.548Z,98030.67
2019-03-06T05:08:54.878Z,98035.80
2019-03-06T05:09:56.546Z,98034.48
2019-03-06T05:10:58.770Z,98037.94
2019-03-06T05:12:01.484Z,98044.05
2019-03-06T05:13:04.798Z,98041.77
2019-03-06T05:14:06.918Z,98050.86
2019-03-06T05:15:12.185Z,98042.73
2019-03-06T05:16:13.898Z,98048.70
2019-03-06T05:17:21.148Z,98049.02
2019-03-06T05:18:30.882Z,98047.54
2019-03-06T05:19:33.244Z,98054.47
2019-03-06T05:20:35.426Z,98051.34
2019-03-06T05:21:37.397Z,98049.86
2019-03-06T05:22:39.377Z,98048.89
2019-03-06T05:23:41.556Z,98051.53
2019-03-06T05:24:43.243Z,98058.14
2019-03-06T05:25:45.203Z,98057.47
2019-03-06T05:26:47.186Z,98065.55
2019-03-06T05:27:48.883Z,98063.11
2019-03-06T05:28:51.091Z,98070.55
2019-03-06T05:29:53.227Z,98071.03
2019-03-06T05:30:55.235Z,98068.06
2019-03-06T05:32:23.169Z,98065.59
2019-03-06T05:33:25.230Z,98070.36
2019-03-06T05:34:27.490Z,98075.32
2019-03-06T05:35:50.421Z,98076.16
2019-03-06T05:37:26.307Z,98085.72
2019-03-06T05:39:05.420Z,98087.89
2019-03-06T05:40:09.507Z,98084.25
2019-03-06T05:41:11.423Z,98083.73
2019-03-06T05:42:13.349Z,98088.20
2019-03-06T05:43:15.348Z,98099.60
2019-03-06T05:44:17.323Z,98097.45
2019-03-06T05:45:19.265Z,98100.78
2019-03-06T05:46:21.090Z,98095.80
2019-03-06T05:47:22.983Z,98097.97
2019-03-06T05:48:24.770Z,98097.80
2019-03-06T05:49:28.532Z,98099.77
2019-03-06T05:50:32.190Z,98096.16
2019-03-06T05:51:34.179Z,98106.70
2019-03-06T05:52:36.172Z,98098.13
2019-03-06T05:53:40.189Z,98099.96
2019-03-06T05:54:42.078Z,98101.44
2019-03-06T05:55:44.190Z,98111.00
2019-03-06T05:56:48.468Z,98105.38
2019-03-06T05:57:50.815Z,98116.64
2019-03-06T05:58:55.270Z,98119.44
2019-03-06T05:59:57.192Z,98117.94
2019-03-06T06:00:59.010Z,98117.94
2019-03-06T06:02:01.070Z,98118.76
2019-03-06T06:03:03.511Z,98123.56
2019-03-06T06:04:05.156Z,98123.38
2019-03-06T06:05:12.511Z,98119.28
2019-03-06T06:06:14.752Z,98129.16
2019-03-06T06:07:16.650Z,98128.52
2019-03-06T06:08:18.594Z,98141.05
2019-03-06T06:09:21.417Z,98132.97
2019-03-06T06:10:23.584Z,98132.79
2019-03-06T06:11:25.774Z,98138.76
2019-03-06T06:12:27.713Z,98140.08
2019-03-06T06:13:30.999Z,98137.41
2019-03-06T06:14:33.192Z,98143.38
2019-03-06T06:15:35.197Z,98143.72
2019-03-06T06:16:37.405Z,98146.00
2019-03-06T06:17:41.565Z,98143.22
2019-03-06T06:18:43.892Z,98148.34
2019-03-06T06:19:46.187Z,98149.64
2019-03-06T06:20:49.981Z,98149.81
2019-03-06T06:21:59.539Z,98149.63
2019-03-06T06:23:15.558Z,98144.87
2019-03-06T06:24:17.671Z,98146.02
2019-03-06T06:25:19.876Z,98146.00
2019-03-06T06:26:22.199Z,98152.28
2019-03-06T06:27:23.889Z,98151.13
2019-03-06T06:28:27.614Z,98160.55
2019-03-06T06:29:29.825Z,98164.52
2019-03-06T06:30:33.271Z,98162.20
2019-03-06T06:31:35.282Z,98164.19
2019-03-06T06:32:37.315Z,98157.89
2019-03-06T06:33:39.675Z,98162.21
2019-03-06T06:34:41.611Z,98161.88
2019-03-06T06:35:43.911Z,98161.53
2019-03-06T06:36:45.961Z,98167.98
2019-03-06T06:37:48.032Z,98166.81
2019-03-06T06:38:50.029Z,98168.12
2019-03-06T06:39:51.911Z,98165.48
2019-03-06T06:40:53.981Z,98169.61
2019-03-06T06:41:56.089Z,98163.84
2019-03-06T06:42:58.308Z,98174.58
2019-03-06T06:44:00.318Z,98174.11
2019-03-06T06:45:08.044Z,98174.73
2019-03-06T06:46:09.781Z,98181.86
2019-03-06T06:47:12.075Z,98189.63
2019-03-06T06:48:17.237Z,98184.66
2019-03-06T06:49:19.405Z,98194.41
2019-03-06T06:50:21.395Z,98193.07
2019-03-06T06:51:49.821Z,98202.67
2019-03-06T06:53:34.767Z,98201.33
2019-03-06T06:55:09.599Z,98206.45
2019-03-06T06:56:23.125Z,98209.28
2019-03-06T06:57:59.200Z,98204.14
2019-03-06T06:59:07.108Z,98203.47
2019-03-06T07:00:25.466Z,98209.58
2019-03-06T07:01:46.531Z,98213.37
2019-03-06T07:03:17.015Z,98213.36
2019-03-06T07:04:49.321Z,98216.29
2019-03-06T07:05:54.670Z,98218.59
2019-03-06T07:07:14.780Z,98222.59
2019-03-06T07:08:37.024Z,98224.23
2019-03-06T07:10:01.072Z,98224.23
2019-03-06T07:11:05.205Z,98226.71
2019-03-06T07:12:11.888Z,98224.23
2019-03-06T07:13:16.389Z,98235.34
2019-03-06T07:14:23.071Z,98222.45
2019-03-06T07:15:31.063Z,98223.44
2019-03-06T07:16:34.920Z,98226.08
2019-03-06T07:17:38.881Z,98239.95
2019-03-06T07:18:45.779Z,98229.22
2019-03-06T07:19:49.605Z,98230.54
2019-03-06T07:20:52.580Z,98230.53
2019-03-06T07:21:56.412Z,98233.48
2019-03-06T07:23:12.732Z,98239.78
2019-03-06T07:24:19.611Z,98242.13
2019-03-06T07:25:23.551Z,98238.29
2019-03-06T07:26:25.673Z,98239.12
2019-03-06T07:27:41.796Z,98244.76
2019-03-06T07:28:45.830Z,98246.92
2019-03-06T07:29:49.753Z,98242.43
2019-03-06T07:30:54.258Z,98246.52
2019-03-06T07:31:56.557Z,98248.85
2019-03-06T07:33:15.686Z,98249.01
2019-03-06T07:34:23.957Z,98251.33
2019-03-06T07:35:59.252Z,98250.66
2019-03-06T07:37:12.130Z,98243.69
2019-03-06T07:38:14.278Z,98252.33
2019-03-06T07:39:20.300Z,98251.69
2019-03-06T07:40:23.174Z,98250.36
2019-03-06T07:41:43.738Z,98253.66
2019-03-06T07:42:47.386Z,98255.98
2019-03-06T07:43:52.362Z,98251.50
2019-03-06T07:45:39.047Z,98256.31
2019-03-06T07:46:42.946Z,98256.33
2019-03-06T07:47:52.959Z,98255.95
2019-03-06T07:49:14.594Z,98251.50
2019-03-06T07:50:20.873Z,98255.31
2019-03-06T07:51:24.204Z,98257.95
2019-03-06T07:52:29.935Z,98265.05
2019-03-06T07:53:50.880Z,98267.38
2019-03-06T07:55:13.028Z,98273.33
2019-03-06T07:56:17.014Z,98274.32
2019-03-06T07:57:19.088Z,98273.45
2019-03-06T07:58:51.350Z,98274.12
2019-03-06T07:59:53.598Z,98276.27
2019-03-06T08:00:55.750Z,98270.10
2019-03-06T08:02:05.978Z,98272.37
2019-03-06T08:03:08.256Z,98275.55
2019-03-06T08:04:12.960Z,98277.32
2019-03-06T08:05:15.198Z,98278.48
2019-03-06T08:06:17.149Z,98276.00
2019-03-06T08:07:19.159Z,98277.16
2019-03-06T08:08:21.347Z,98274.45
2019-03-06T08:09:23.527Z,98274.73
2019-03-06T08:10:27.277Z,98280.06
2019-03-06T08:11:31.213Z,98288.82
2019-03-06T08:12:35.059Z,98293.70
2019-03-06T08:13:39.196Z,98287.95
2019-03-06T08:14:43.427Z,98291.80
2019-03-06T08:15:50.332Z,98288.72
2019-03-06T08:16:54.293Z,98285.94
2019-03-06T08:17:59.582Z,98287.72
2019-03-06T08:19:15.173Z,98283.48
2019-03-06T08:20:22.053Z,98288.58
2019-03-06T08:21:32.959Z,98291.67
2019-03-06T08:22:35.103Z,98288.49
2019-03-06T08:23:38.943Z,98285.34
2019-03-06T08:24:42.909Z,98288.86
2019-03-06T08:25:46.483Z,98290.83
2019-03-06T08:26:48.638Z,98294.64
2019-03-06T08:27:50.630Z,98297.73
2019-03-06T08:28:52.836Z,98297.07
2019-03-06T08:29:54.808Z,98287.36
2019-03-06T08:30:58.589Z,98290.02
2019-03-06T08:32:02.429Z,98299.92
2019-03-06T08:33:05.025Z,98293.33
2019-03-06T08:34:06.926Z,98308.73
2019-03-06T08:35:11.320Z,98298.86
2019-03-06T08:36:13.264Z,98305.67
2019-03-06T08:37:15.251Z,98306.25
2019-03-06T08:38:17.805Z,98306.64
2019-03-06T08:39:20.929Z,98302.38
2019-03-06T08:40:22.871Z,98300.61
2019-03-06T08:41:26.952Z,98308.75
2019-03-06T08:42:29.303Z,98303.94
2019-03-06T08:43:32.568Z,98305.38
2019-03-06T08:44:35.260Z,98310.09
2019-03-06T08:45:43.296Z,98308.33
2019-03-06T08:46:48.413Z,98307.02
2019-03-06T08:47:58.274Z,98313.61
2019-03-06T08:49:09.537Z,98312.12
2019-03-06T08:50:13.954Z,98316.41
2019-03-06T08:51:34.787Z,98317.92
2019-03-06T08:52:39.829Z,98317.61
2019-03-06T08:53:43.743Z,98314.16
2019-03-06T08:54:45.563Z,98307.72
2019-03-06T08:55:49.643Z,98304.09
2019-03-06T08:56:57.612Z,98311.02
2019-03-06T08:58:13.441Z,98304.09
2019-03-06T08:59:18.702Z,98307.77
2019-03-06T09:00:40.059Z,98313.03
2019-03-06T09:01:44.049Z,98307.08
2019-03-06T09:03:10.667Z,98310.38
2019-03-06T09:04:32.109Z,98302.09
2019-03-06T09:05:48.097Z,98301.94
2019-03-06T09:06:53.433Z,98299.45
2019-03-06T09:08:01.561Z,98309.05
2019-03-06T09:09:23.283Z,98305.92
2019-03-06T09:10:28.611Z,98306.08
2019-03-06T09:11:33.301Z,98302.94
2019-03-06T09:12:37.326Z,98300.31
2019-03-06T09:13:59.120Z,98298.00
2019-03-06T09:15:02.945Z,98297.00
2019-03-06T09:16:10.004Z,98302.00
2019-03-06T09:17:13.989Z,98306.42
2019-03-06T09:18:16.150Z,98309.26
2019-03-06T09:19:28.947Z,98307.44
2019-03-06T09:20:49.881Z,98303.30
2019-03-06T09:22:10.014Z,98309.09
2019-03-06T09:23:22.608Z,98299.16
2019-03-06T09:24:21.633Z,98299.34
2019-03-06T09:25:31.245Z,98303.48
2019-03-06T09:26:35.269Z,98306.25
2019-03-06T09:27:42.010Z,98301.64
2019-03-06T09:29:01.047Z,98304.61
2019-03-06T09:30:02.106Z,98306.42
2019-03-06T09:31:24.109Z,98304.13
2019-03-06T09:32:46.252Z,98303.14
2019-03-06T09:34:03.660Z,98297.39
2019-03-06T09:35:17.778Z,98298.33
2019-03-06T09:36:25.325Z,98302.15
2019-03-06T09:37:47.112Z,98297.41
2019-03-06T09:38:57.030Z,98300.87
2019-03-06T09:40:03.715Z,98301.17
2019-03-06T09:41:10.672Z,98294.56
2019-03-06T09:42:31.026Z,98296.04
2019-03-06T09:43:35.532Z,98304.97
2019-03-06T09:44:57.177Z,98303.03
2019-03-06T09:46:01.105Z,98308.32
2019-03-06T09:47:04.080Z,98307.66
2019-03-06T09:48:14.219Z,98310.45
2019-03-06T09:49:21.051Z,98307.98
2019-03-06T09:50:28.002Z,98309.97
2019-03-06T09:51:29.964Z,98306.64
2019-03-06T09:52:36.815Z,98308.14
2019-03-06T09:53:43.521Z,98317.89
2019-03-06T09:54:50.102Z,98316.58
2019-03-06T09:55:57.080Z,98317.67
2019-03-06T09:57:17.189Z,98318.16
2019-03-06T09:58:21.005Z,98320.33
2019-03-06T09:59:34.270Z,98318.52
2019-03-06T10:00:36.142Z,98314.20
2019-03-06T10:01:42.901Z,98315.84
2019-03-06T10:02:52.274Z,98318.84
2019-03-06T10:03:54.383Z,98329.02
2019-03-06T10:05:05.082Z,98329.00
2019-03-06T10:06:12.272Z,98332.13
2019-03-06T10:07:20.038Z,98339.77
2019-03-06T10:08:23.771Z,98328.69
2019-03-06T10:09:36.535Z,98341.58
2019-03-06T10:10:50.464Z,98345.16
2019-03-06T10:12:07.170Z,98342.50
2019-03-06T10:13:10.895Z,98350.02
2019-03-06T10:14:12.767Z,98350.84
2019-03-06T10:15:20.678Z,98348.54
2019-03-06T10:16:36.950Z,98353.03
2019-03-06T10:17:47.234Z,98355.16
2019-03-06T10:18:51.033Z,98356.60
2019-03-06T10:19:54.952Z,98358.39
2019-03-06T10:20:57.025Z,98351.96
2019-03-06T10:21:59.271Z,98361.02
2019-03-06T10:23:01.468Z,98361.66
2019-03-06T10:24:03.881Z,98363.32
2019-03-06T10:25:07.379Z,98369.00
2019-03-06T10:26:09.648Z,98368.03
2019-03-06T10:27:13.742Z,98366.72
2019-03-06T10:28:16.034Z,98365.75
2019-03-06T10:29:18.424Z,98369.41
2019-03-06T10:30:20.415Z,98372.55
2019-03-06T10:31:22.779Z,98367.80
2019-03-06T10:32:24.951Z,98374.70
2019-03-06T10:33:27.109Z,98369.73
2019-03-06T10:34:29.119Z,98365.83
2019-03-06T10:35:33.042Z,98366.17
2019-03-06T10:36:35.400Z,98370.96
2019-03-06T10:37:37.587Z,98364.04
2019-03-06T10:38:39.901Z,98371.47
2019-03-06T10:39:42.175Z,98373.96
2019-03-06T10:40:44.055Z,98373.95
2019-03-06T10:41:46.472Z,98369.48
2019-03-06T10:42:48.638Z,98368.17
2019-03-06T10:43:50.605Z,98369.79
2019-03-06T10:44:52.810Z,98374.70
2019-03-06T10:45:54.917Z,98372.28
2019-03-06T10:46:57.019Z,98378.59
2019-03-06T10:48:00.837Z,98371.14
2019-03-06T10:49:03.490Z,98373.81
2019-03-06T10:50:11.041Z,98372.48
2019-03-06T10:51:13.047Z,98369.84
2019-03-06T10:52:15.181Z,98370.00
2019-03-06T10:53:17.567Z,98365.37
2019-03-06T10:54:19.399Z,98365.53
2019-03-06T10:55:21.606Z,98370.52
2019-03-06T10:56:24.197Z,98374.30
2019-03-06T10:57:26.276Z,98363.50
2019-03-06T10:58:28.779Z,98371.73
2019-03-06T10:59:30.773Z,98365.23
2019-03-06T11:00:35.768Z,98365.84
2019-03-06T11:01:38.151Z,98365.30
2019-03-06T11:02:40.639Z,98360.49
2019-03-06T11:03:44.769Z,98357.74
2019-03-06T11:04:48.911Z,98359.23
2019-03-06T11:05:51.304Z,98356.09
2019-03-06T11:06:53.723Z,98355.02
2019-03-06T11:07:57.646Z,98364.09
2019-03-06T11:08:59.902Z,98361.64
2019-03-06T11:10:03.369Z,98362.59
2019-03-06T11:11:06.914Z,98367.71
2019-03-06T11:12:09.673Z,98364.88
2019-03-06T11:13:12.075Z,98367.30
2019-03-06T11:14:14.658Z,98369.70
2019-03-06T11:15:19.497Z,98367.38
2019-03-06T11:16:21.978Z,98365.31
2019-03-06T11:17:24.374Z,98365.71
2019-03-06T11:18:26.670Z,98369.06
2019-03-06T11:19:28.593Z,98365.69
2019-03-06T11:20:33.326Z,98367.14
2019-03-06T11:21:36.199Z,98363.75
2019-03-06T11:22:38.508Z,98364.23
2019-03-06T11:23:40.880Z,98366.72
2019-03-06T11:24:43.212Z,98361.41
2019-03-06T11:25:45.513Z,98362.45
2019-03-06T11:26:47.972Z,98360.21
2019-03-06T11:27:49.751Z,98362.30
2019-03-06T11:28:53.325Z,98361.19
2019-03-06T11:29:55.714Z,98350.33
2019-03-06T11:30:59.117Z,98361.41
2019-03-06T11:32:01.639Z,98357.19
2019-03-06T11:33:08.014Z,98351.27
2019-03-06T11:34:10.635Z,98350.42
2019-03-06T11:35:17.429Z,98341.94
2019-03-06T11:36:22.647Z,98352.71
2019-03-06T11:37:25.266Z,98349.77
2019-03-06T11:38:27.928Z,98354.50
2019-03-06T11:39:30.310Z,98352.21
2019-03-06T11:40:33.691Z,98356.17
2019-03-06T11:41:36.814Z,98360.38
2019-03-06T11:42:38.817Z,98356.89
2019-03-06T11:43:41.289Z,98361.48
2019-03-06T11:44:43.615Z,98359.79
2019-03-06T11:45:46.166Z,98366.09
2019-03-06T11:46:49.212Z,98364.13
2019-03-06T11:47:51.298Z,98358.69
2019-03-06T11:48:53.848Z,98365.32
2019-03-06T11:49:55.942Z,98361.35
2019-03-06T11:50:58.334Z,98360.71
2019-03-06T11:52:00.490Z,98368.64
2019-03-06T11:53:03.704Z,98368.14
2019-03-06T11:54:06.589Z,98368.66
2019-03-06T11:55:11.564Z,98361.03
2019-03-06T11:56:13.760Z,98360.88
2019-03-06T11:57:17.192Z,98359.75
2019-03-06T11:58:19.741Z,98358.59
2019-03-06T11:59:23.654Z,98359.45
2019-03-06T12:00:33.570Z,98361.50
2019-03-06T12:01:35.969Z,98364.27
2019-03-06T12:02:38.298Z,98358.12
2019-03-06T12:03:40.594Z,98356.47
2019-03-06T12:04:43.034Z,98348.84
2019-03-06T12:05:45.598Z,98353.19
2019-03-06T12:06:47.290Z,98358.53
2019-03-06T12:07:49.797Z,98357.72
2019-03-06T12:08:52.249Z,98357.05
2019-03-06T12:09:54.526Z,98354.27
2019-03-06T12:10:58.523Z,98355.95
2019-03-06T12:12:02.146Z,98351.30
2019-03-06T12:13:08.772Z,98353.42
2019-03-06T12:14:10.918Z,98351.62
2019-03-06T12:15:14.097Z,98352.14
2019-03-06T12:16:17.917Z,98338.38
2019-03-06T12:17:20.234Z,98338.86
2019-03-06T12:18:23.197Z,98336.57
2019-03-06T12:19:25.703Z,98347.48
2019-03-06T12:20:28.119Z,98351.98
2019-03-06T12:21:29.997Z,98351.49
2019-03-06T12:22:32.601Z,98351.80
2019-03-06T12:23:34.671Z,98350.31
2019-03-06T12:24:36.393Z,98354.30
2019-03-06T12:25:39.717Z,98351.14
2019-03-06T12:26:41.922Z,98352.29
2019-03-06T12:27:44.281Z,98354.63
2019-03-06T12:28:46.631Z,98363.99
2019-03-06T12:29:48.873Z,98358.84
2019-03-06T12:30:50.973Z,98357.47
2019-03-06T12:31:53.289Z,98356.73
2019-03-06T12:32:56.483Z,98347.39
2019-03-06T12:33:58.501Z,98356.30
2019-03-06T12:35:00.461Z,98346.63
2019-03-06T12:36:03.341Z,98347.87
2019-03-06T12:37:06.100Z,98353.69
2019-03-06T12:38:08.532Z,98340.99
2019-03-06T12:39:11.370Z,98354.67
2019-03-06T12:40:19.198Z,98350.88